createdAt,value
2023-02-23T00:01:14.595Z,35.13
2023-02-23T00:06:18.246Z,34.03
2023-02-23T00:11:21.679Z,34.17
2023-02-23T00:16:25.587Z,33.10
2023-02-23T00:21:35.205Z,36.58
2023-02-23T00:26:39.176Z,34.80
2023-02-23T00:31:40.911Z,34.72
2023-02-23T00:36:43.009Z,34.65
2023-02-23T00:41:46.660Z,33.28
2023-02-23T00:46:51.135Z,33.40
2023-02-23T00:51:52.982Z,31.55
2023-02-23T00:56:54.644Z,32.63
2023-02-23T01:01:57.646Z,32.97
2023-02-23T01:06:59.317Z,31.30
2023-02-23T01:12:02.388Z,31.10
2023-02-23T01:17:04.194Z,33.72
2023-02-23T01:22:05.883Z,32.35
2023-02-23T01:27:07.549Z,31.98
2023-02-23T01:32:09.207Z,31.55
2023-02-23T01:37:10.915Z,31.42
2023-02-23T01:42:15.757Z,33.08
2023-02-23T01:47:20.366Z,30.30
2023-02-23T01:52:22.098Z,33.05
2023-02-23T01:57:25.099Z,32.10
2023-02-23T02:02:33.643Z,31.75
2023-02-23T02:07:36.625Z,33.65
2023-02-23T02:12:39.523Z,32.03
2023-02-23T02:17:53.617Z,31.60
2023-02-23T02:22:55.185Z,30.63
2023-02-23T02:28:18.021Z,30.33
2023-02-23T02:33:45.897Z,29.35
2023-02-23T02:38:59.372Z,30.55
2023-02-23T02:44:15.203Z,30.92
2023-02-23T02:49:26.727Z,28.75
2023-02-23T02:54:34.431Z,28.00
2023-02-23T03:00:06.634Z,28.27
2023-02-23T03:05:39.255Z,30.15
2023-02-23T03:11:09.062Z,29.15
2023-02-23T03:16:38.920Z,28.20
2023-02-23T03:22:09.573Z,30.07
2023-02-23T03:27:42.600Z,27.77
2023-02-23T03:33:11.095Z,27.50
2023-02-23T03:38:39.282Z,28.38
2023-02-23T03:44:09.930Z,28.70
2023-02-23T03:54:59.493Z,28.80
2023-02-23T04:00:24.822Z,28.45
2023-02-23T04:05:47.077Z,27.73
2023-02-23T04:11:21.549Z,30.40
2023-02-23T04:16:23.326Z,27.30
2023-02-23T04:21:25.232Z,28.67
2023-02-23T04:26:26.823Z,25.75
2023-02-23T04:31:28.441Z,28.58
2023-02-23T04:36:30.401Z,26.33
2023-02-23T04:41:32.036Z,27.40
2023-02-23T04:46:33.726Z,27.23
2023-02-23T04:51:36.630Z,27.83
2023-02-23T04:56:39.443Z,27.08
2023-02-23T05:01:41.147Z,28.15
2023-02-23T05:06:42.980Z,28.45
2023-02-23T05:11:44.590Z,29.45
2023-02-23T05:16:46.172Z,27.83
2023-02-23T05:21:50.148Z,27.00
2023-02-23T05:26:51.858Z,29.08
2023-02-23T05:31:53.515Z,28.52
2023-02-23T05:36:55.266Z,27.30
2023-02-23T05:41:56.875Z,28.05
2023-02-23T05:46:58.538Z,28.17
2023-02-23T05:52:00.463Z,27.38
2023-02-23T05:57:02.103Z,29.08
2023-02-23T06:02:06.026Z,27.80
2023-02-23T06:07:07.878Z,28.73
2023-02-23T06:12:09.560Z,27.63
2023-02-23T06:17:11.246Z,25.20
2023-02-23T06:22:13.075Z,23.77
2023-02-23T06:27:31.563Z,23.80
2023-02-23T06:32:33.232Z,21.70
2023-02-23T06:37:37.336Z,19.85
2023-02-23T06:42:38.927Z,21.30
2023-02-23T06:47:41.093Z,19.02
2023-02-23T06:52:42.875Z,18.95
2023-02-23T06:57:44.862Z,18.45
2023-02-23T07:02:46.595Z,16.63
2023-02-23T07:07:48.324Z,15.02
2023-02-23T07:12:49.985Z,15.32
2023-02-23T07:17:52.894Z,12.82
2023-02-23T07:22:54.988Z,12.27
2023-02-23T07:27:59.048Z,11.20
2023-02-23T07:33:00.925Z,10.57
2023-02-23T07:38:02.574Z,11.70
2023-02-23T07:43:04.298Z,11.35
2023-02-23T07:48:06.109Z,11.27
2023-02-23T07:53:07.964Z,9.25
2023-02-23T07:58:09.868Z,9.55
2023-02-23T08:03:11.673Z,9.38
2023-02-23T08:08:13.617Z,8.90
2023-02-23T08:13:17.512Z,8.55
2023-02-23T08:18:19.259Z,10.00
2023-02-23T08:23:20.983Z,9.35
2023-02-23T08:28:23.222Z,11.13
2023-02-23T08:33:24.968Z,10.57
2023-02-23T08:38:26.572Z,11.20
2023-02-23T08:43:29.207Z,10.48
2023-02-23T08:48:30.809Z,11.23
2023-02-23T08:53:32.730Z,9.80
2023-02-23T08:58:35.790Z,11.52
2023-02-23T09:03:39.737Z,9.90
2023-02-23T09:08:42.276Z,9.77
2023-02-23T09:13:44.753Z,10.77
2023-02-23T09:18:46.540Z,9.98
2023-02-23T09:23:51.132Z,9.77
2023-02-23T09:28:52.737Z,12.02
2023-02-23T09:33:55.141Z,15.23
2023-02-23T09:38:57.752Z,16.05
2023-02-23T09:44:12.603Z,19.02
2023-02-23T09:49:19.809Z,18.23
2023-02-23T09:54:24.247Z,21.40
2023-02-23T09:59:26.162Z,22.95
2023-02-23T10:04:32.710Z,23.98
2023-02-23T10:10:08.547Z,22.00
2023-02-23T10:15:28.746Z,24.45
2023-02-23T10:21:01.299Z,24.15
2023-02-23T10:26:07.710Z,22.48
2023-02-23T10:31:24.466Z,22.95
2023-02-23T10:36:39.457Z,18.67
2023-02-23T10:41:42.981Z,14.68
2023-02-23T10:46:49.903Z,15.48
2023-02-23T10:51:58.240Z,16.08
2023-02-23T10:57:00.100Z,18.30
2023-02-23T11:02:22.816Z,20.83
2023-02-23T11:07:31.134Z,20.35
2023-02-23T11:12:41.890Z,22.13
2023-02-23T11:17:43.598Z,20.13
2023-02-23T11:22:45.741Z,22.42
2023-02-23T11:27:51.640Z,24.52
2023-02-23T11:32:57.398Z,23.30
2023-02-23T11:37:59.320Z,25.23
2023-02-23T11:43:09.980Z,23.83
2023-02-23T11:48:27.105Z,19.95
2023-02-23T11:53:34.922Z,18.25
2023-02-23T11:58:40.289Z,20.83
2023-02-23T12:03:51.696Z,16.90
2023-02-23T12:08:56.957Z,17.17
2023-02-23T12:14:03.826Z,16.00
2023-02-23T12:19:32.992Z,12.85
2023-02-23T12:24:34.677Z,13.77
2023-02-23T12:29:39.401Z,15.70
2023-02-23T12:34:53.098Z,14.25
2023-02-23T12:40:23.678Z,14.90
2023-02-23T12:45:37.761Z,14.43
2023-02-23T12:50:45.851Z,14.27
2023-02-23T12:56:14.655Z,13.82
2023-02-23T13:01:34.546Z,14.05
2023-02-23T13:06:50.871Z,14.40
2023-02-23T13:12:06.803Z,11.73
2023-02-23T13:17:25.670Z,10.68
2023-02-23T13:22:33.706Z,13.35
2023-02-23T13:27:46.082Z,11.32
2023-02-23T13:32:47.935Z,10.20
2023-02-23T13:38:01.741Z,7.80
2023-02-23T13:43:18.730Z,6.25
2023-02-23T13:48:35.142Z,4.05
2023-02-23T13:53:41.684Z,2.47
2023-02-23T13:58:54.124Z,3.30
2023-02-23T14:04:04.780Z,3.30
2023-02-23T14:09:23.835Z,2.58
2023-02-23T14:14:31.846Z,2.63
2023-02-23T14:19:40.937Z,2.65
2023-02-23T14:24:42.629Z,2.10
2023-02-23T14:30:05.289Z,3.10
2023-02-23T14:35:32.434Z,3.08
2023-02-23T14:40:40.884Z,3.78
2023-02-23T14:45:44.377Z,2.97
2023-02-23T14:50:45.983Z,2.90
2023-02-23T14:55:48.693Z,3.38
2023-02-23T15:00:52.082Z,4.80
2023-02-23T15:05:59.662Z,3.70
2023-02-23T15:11:05.851Z,4.05
2023-02-23T15:16:14.267Z,4.03
2023-02-23T15:21:19.895Z,5.30
2023-02-23T15:26:48.059Z,4.53
2023-02-23T15:31:53.179Z,4.75
2023-02-23T15:37:03.001Z,5.22
2023-02-23T15:42:06.510Z,6.05
2023-02-23T15:47:18.070Z,5.53
2023-02-23T15:52:24.484Z,7.05
2023-02-23T15:57:48.285Z,5.40
2023-02-23T16:02:50.652Z,4.88
2023-02-23T16:08:06.310Z,4.65
2023-02-23T16:13:08.083Z,4.47
2023-02-23T16:18:17.707Z,5.13
2023-02-23T16:23:44.600Z,4.57
2023-02-23T16:28:47.074Z,4.43
2023-02-23T16:33:57.056Z,3.13
2023-02-23T16:39:02.166Z,3.40
2023-02-23T16:44:06.253Z,3.78
2023-02-23T16:49:12.331Z,2.88
2023-02-23T16:54:14.010Z,3.58
2023-02-23T16:59:18.690Z,3.78
2023-02-23T17:04:20.906Z,3.95
2023-02-23T17:09:24.248Z,3.38
2023-02-23T17:14:31.985Z,3.70
2023-02-23T17:19:33.764Z,3.53
2023-02-23T17:24:35.574Z,3.72
2023-02-23T17:29:37.257Z,3.75
2023-02-23T17:34:39.048Z,3.88
2023-02-23T17:39:41.061Z,3.05
2023-02-23T17:44:42.765Z,3.70
2023-02-23T17:49:44.443Z,3.33
2023-02-23T17:54:46.285Z,3.22
2023-02-23T17:59:47.983Z,4.10
2023-02-23T18:04:50.605Z,2.85
2023-02-23T18:09:52.587Z,3.75
2023-02-23T18:14:54.270Z,4.22
2023-02-23T18:19:56.027Z,2.88
2023-02-23T18:24:58.247Z,3.17
2023-02-23T18:29:59.898Z,2.80
2023-02-23T18:35:01.573Z,3.38
2023-02-23T18:40:04.933Z,3.95
2023-02-23T18:45:08.146Z,4.15
2023-02-23T18:50:12.663Z,3.25
2023-02-23T18:55:15.367Z,4.32
2023-02-23T19:00:18.471Z,4.40
2023-02-23T19:05:21.967Z,4.65
2023-02-23T19:10:23.777Z,4.40
2023-02-23T19:15:25.387Z,3.95
2023-02-23T19:20:32.544Z,4.65
2023-02-23T19:25:34.337Z,4.22
2023-02-23T19:30:35.960Z,4.72
2023-02-23T19:35:41.504Z,4.13
2023-02-23T19:40:43.150Z,3.95
2023-02-23T19:45:48.950Z,4.72
2023-02-23T19:50:51.668Z,4.85
2023-02-23T19:56:05.968Z,4.97
2023-02-23T20:01:10.325Z,5.85
2023-02-23T20:06:13.648Z,5.28
2023-02-23T20:11:15.714Z,6.70
2023-02-23T20:16:17.610Z,7.43
2023-02-23T20:21:23.479Z,7.07
2023-02-23T20:26:30.962Z,7.90
2023-02-23T20:31:35.721Z,7.78
2023-02-23T20:36:37.688Z,6.88
2023-02-23T20:41:43.308Z,8.05
2023-02-23T20:46:45.126Z,7.20
2023-02-23T20:51:48.649Z,7.65
2023-02-23T20:56:58.918Z,6.75
2023-02-23T21:02:01.672Z,6.65
2023-02-23T21:07:07.753Z,18.55
2023-02-23T21:12:13.930Z,4.32
2023-02-23T21:17:15.757Z,5.80
2023-02-23T21:22:17.883Z,5.63
2023-02-23T21:27:19.613Z,4.50
2023-02-23T21:32:22.603Z,5.05
2023-02-23T21:37:24.324Z,4.32
2023-02-23T21:42:26.601Z,4.47
2023-02-23T21:47:28.193Z,3.47
2023-02-23T21:52:31.454Z,3.50
2023-02-23T21:57:33.292Z,3.58
2023-02-23T22:02:37.696Z,3.25
2023-02-23T22:07:39.470Z,4.15
2023-02-23T22:12:41.074Z,4.30
2023-02-23T22:17:43.788Z,2.58
2023-02-23T22:22:45.616Z,2.97
2023-02-23T22:27:47.364Z,1.88
2023-02-23T22:32:49.159Z,1.38
2023-02-23T22:37:50.972Z,2.58
2023-02-23T22:42:54.594Z,1.73
2023-02-23T22:48:01.474Z,2.10
2023-02-23T22:53:04.241Z,1.42
2023-02-23T22:58:09.277Z,2.08
2023-02-23T23:03:13.143Z,2.33
2023-02-23T23:08:15.305Z,2.03
2023-02-23T23:13:17.616Z,1.50
2023-02-23T23:18:20.826Z,1.73
2023-02-23T23:23:26.099Z,1.80
2023-02-23T23:28:28.627Z,2.28
2023-02-23T23:33:30.635Z,1.70
2023-02-23T23:38:32.972Z,1.95
2023-02-23T23:43:36.991Z,1.20
2023-02-23T23:48:39.317Z,1.60
2023-02-23T23:53:40.913Z,1.15
2023-02-23T23:58:42.481Z,1.55
